Ellensburg, Washington
Current Conditions -  °F | °C
As of 11:53 PM on Friday 19 Dec 2014 (Local Time) from KELN Reporting Station
Light Rain Light Rain  
Wind Chill: 35°   Ceiling: 5000
Heat Index: 35°   Visibility: 10mi
Dew Point: 31°   Wind: 3mph
Humidity: 85%   Direction: 200°SSW
Pressure: 29.93"   Gusts: NA
Location:  47°N, 120.54°W
Report Text: KELN 200753Z AUTO 20003KT 10SM -RA SCT039 OVC050 02/M01 A2993 RMK AO2 RAB48 SLP147 P0001 T00171006 400890006
Loading
Personal Weather Stations






























Interactive Weather Map New forecast layout! Learn more

10-Day Weather Forecast

Advertisements
Track Severe Weather on mobile